createdAt,value
2022-10-10T05:03:28.605Z,79.10
2022-10-10T05:08:32.288Z,78.90
2022-10-10T05:13:35.898Z,79.20
2022-10-10T05:18:40.868Z,79.80
2022-10-10T05:23:44.512Z,80.00
2022-10-10T05:28:48.240Z,80.40
2022-10-10T05:33:53.346Z,80.50
2022-10-10T05:38:57.615Z,80.70
2022-10-10T05:44:01.297Z,80.80
2022-10-10T05:49:06.251Z,81.00
2022-10-10T05:54:10.074Z,81.10
2022-10-10T05:59:13.774Z,81.60
2022-10-10T06:04:18.932Z,82.00
2022-10-10T06:09:22.680Z,82.30
2022-10-10T06:14:26.346Z,82.60
2022-10-10T06:19:31.510Z,83.00
2022-10-10T06:24:35.322Z,83.30
2022-10-10T06:29:38.926Z,84.20
2022-10-10T06:34:44.146Z,84.30
2022-10-10T06:39:47.769Z,84.50
2022-10-10T06:44:51.613Z,84.60
2022-10-10T06:49:56.858Z,85.20
2022-10-10T06:55:00.488Z,85.70
2022-10-10T07:00:05.746Z,85.60
2022-10-10T07:05:13.037Z,85.60
2022-10-10T07:10:17.160Z,85.80
2022-10-10T07:15:20.783Z,85.80
2022-10-10T07:20:25.880Z,86.00
2022-10-10T07:25:30.122Z,86.00
2022-10-10T07:30:34.021Z,85.80
2022-10-10T07:35:38.988Z,85.80
2022-10-10T07:40:42.559Z,86.20
2022-10-10T07:45:46.259Z,86.40
2022-10-10T07:50:51.197Z,86.40
2022-10-10T07:55:54.796Z,86.40
2022-10-10T08:01:03.868Z,86.70
2022-10-10T08:06:11.749Z,86.70
2022-10-10T08:11:15.395Z,86.50
2022-10-10T08:16:19.432Z,86.40
2022-10-10T08:21:24.521Z,86.60
2022-10-10T08:26:28.144Z,86.60
2022-10-10T08:31:31.812Z,86.80
2022-10-10T08:36:37.306Z,86.70
2022-10-10T08:41:47.029Z,86.80
2022-10-10T08:46:53.777Z,86.40
2022-10-10T08:52:04.577Z,86.00
2022-10-10T08:57:16.686Z,85.80
2022-10-10T09:02:53.127Z,85.60
2022-10-10T09:08:18.000Z,85.30
2022-10-10T09:13:31.642Z,84.20
2022-10-10T09:18:47.040Z,83.00
2022-10-10T09:23:55.994Z,81.60
2022-10-10T09:29:06.117Z,81.00
2022-10-10T09:34:16.421Z,80.90
2022-10-10T09:39:32.498Z,81.20
2022-10-10T09:44:36.135Z,81.80
2022-10-10T09:49:39.758Z,81.80
2022-10-10T09:54:44.913Z,81.90
2022-10-10T09:59:48.536Z,81.90
2022-10-10T10:04:53.793Z,82.30
2022-10-10T10:10:00.534Z,82.70
2022-10-10T10:15:08.551Z,82.40
2022-10-10T10:20:34.107Z,82.20
2022-10-10T10:25:40.032Z,81.90
2022-10-10T10:30:45.127Z,81.80
2022-10-10T10:35:56.815Z,81.80
2022-10-10T10:41:10.354Z,81.80
2022-10-10T10:46:24.744Z,81.80
2022-10-10T10:51:53.716Z,81.90
2022-10-10T10:57:06.616Z,82.00
2022-10-10T11:02:54.723Z,81.90
2022-10-10T11:08:07.135Z,82.00
2022-10-10T11:13:20.402Z,81.80
2022-10-10T11:18:29.284Z,81.90
2022-10-10T11:23:36.918Z,82.00
2022-10-10T11:28:49.431Z,82.30
2022-10-10T11:33:57.766Z,82.60
2022-10-10T11:39:05.562Z,82.80
2022-10-10T11:44:16.083Z,82.80
2022-10-10T11:49:25.329Z,82.80
2022-10-10T11:54:34.147Z,82.90
2022-10-10T11:59:44.649Z,82.50
2022-10-10T12:04:48.596Z,82.10
2022-10-10T12:09:56.897Z,82.00
2022-10-10T12:15:04.811Z,81.60
2022-10-10T12:20:30.320Z,81.40
2022-10-10T12:25:40.776Z,80.70
2022-10-10T12:31:30.201Z,80.60
2022-10-10T12:36:55.301Z,80.60
2022-10-10T12:41:58.961Z,79.40
2022-10-10T12:47:59.865Z,78.60
2022-10-10T12:52:58.664Z,78.60
2022-10-10T12:58:04.671Z,79.10
2022-10-10T13:03:20.637Z,80.20
2022-10-10T13:08:28.277Z,81.70
2022-10-10T13:13:31.991Z,82.30
2022-10-10T13:18:39.971Z,83.00
2022-10-10T13:29:25.509Z,84.30
2022-10-10T13:34:34.175Z,85.10
2022-10-10T13:39:39.909Z,85.40
2022-10-10T13:44:52.457Z,86.20
2022-10-10T13:49:58.456Z,87.00
2022-10-10T13:55:17.202Z,87.40
2022-10-10T14:00:22.980Z,87.80
2022-10-10T14:05:30.497Z,88.10
2022-10-10T14:10:37.039Z,88.30
2022-10-10T14:15:46.866Z,88.30
2022-10-10T14:20:53.431Z,88.40
2022-10-10T14:25:58.534Z,88.40
2022-10-10T14:31:03.063Z,88.60
2022-10-10T14:36:08.977Z,89.00
2022-10-10T14:41:14.180Z,89.30
2022-10-10T14:46:19.972Z,89.60
2022-10-10T14:51:33.880Z,89.90
2022-10-10T14:57:08.553Z,90.00
2022-10-10T15:02:02.277Z,90.00
2022-10-10T15:07:15.376Z,90.10
2022-10-10T15:12:19.340Z,90.20
2022-10-10T15:17:24.439Z,90.20
2022-10-10T15:22:29.997Z,90.30
2022-10-10T15:27:33.662Z,90.40
2022-10-10T15:32:40.385Z,90.50
2022-10-10T15:37:45.779Z,90.50
2022-10-10T15:42:49.716Z,90.50
2022-10-10T15:47:53.345Z,90.40
2022-10-10T15:52:58.330Z,90.50
2022-10-10T15:58:04.008Z,90.60
2022-10-10T16:03:08.050Z,90.70
2022-10-10T16:08:13.235Z,90.90
2022-10-10T16:13:16.821Z,90.90
2022-10-10T16:18:20.428Z,90.90
2022-10-10T16:23:26.074Z,90.90
2022-10-10T16:28:29.773Z,90.90
2022-10-10T16:33:34.167Z,90.90
2022-10-10T16:38:39.617Z,90.90
2022-10-10T16:43:45.608Z,91.00
2022-10-10T16:48:49.653Z,91.00
2022-10-10T16:53:55.140Z,90.90
2022-10-10T16:59:00.183Z,91.00
2022-10-10T17:04:04.592Z,91.00
2022-10-10T17:09:11.539Z,91.10
2022-10-10T17:14:16.219Z,91.20
2022-10-10T17:19:19.931Z,91.20
2022-10-10T17:24:25.002Z,91.40
2022-10-10T17:29:28.667Z,91.30
2022-10-10T17:34:32.425Z,91.30
2022-10-10T17:39:37.437Z,91.30
2022-10-10T17:44:48.315Z,91.30
2022-10-10T17:49:55.328Z,91.30
2022-10-10T17:55:00.286Z,91.30
2022-10-10T18:00:04.424Z,91.40
2022-10-10T18:05:08.326Z,91.40
2022-10-10T18:10:13.344Z,91.60
2022-10-10T18:15:16.995Z,91.70
2022-10-10T18:20:20.616Z,91.60
2022-10-10T18:25:25.597Z,91.70
2022-10-10T18:30:29.988Z,91.90
2022-10-10T18:35:33.670Z,91.90
2022-10-10T18:40:38.681Z,91.90
2022-10-10T18:45:42.265Z,91.80
2022-10-10T18:50:45.874Z,91.90
2022-10-10T18:55:57.596Z,91.90
2022-10-10T19:01:03.754Z,91.90
2022-10-10T19:06:10.592Z,91.90
2022-10-10T19:11:22.508Z,91.80
2022-10-10T19:16:26.354Z,91.90
2022-10-10T19:21:32.143Z,91.80
2022-10-10T19:26:37.487Z,91.90
2022-10-10T19:31:42.096Z,92.00
2022-10-10T19:36:45.796Z,92.00
2022-10-10T19:41:50.856Z,92.00
2022-10-10T19:46:56.169Z,92.00
2022-10-10T19:51:59.798Z,91.90
2022-10-10T19:57:05.255Z,92.00
2022-10-10T20:02:10.905Z,92.00
2022-10-10T20:07:14.542Z,91.90
2022-10-10T20:12:19.564Z,92.10
2022-10-10T20:17:23.494Z,92.00
2022-10-10T20:22:27.197Z,92.00
2022-10-10T20:27:32.488Z,92.00
2022-10-10T20:32:36.096Z,91.90
2022-10-10T20:37:39.674Z,91.70
2022-10-10T20:42:44.735Z,91.60
2022-10-10T20:47:48.609Z,91.50
2022-10-10T20:52:52.208Z,91.50
2022-10-10T20:57:57.199Z,91.50
2022-10-10T21:03:00.794Z,91.40
2022-10-10T21:08:04.474Z,91.30
2022-10-10T21:13:09.489Z,91.40
2022-10-10T21:18:13.072Z,91.20
2022-10-10T21:23:16.922Z,91.20
2022-10-10T21:28:21.966Z,91.10
2022-10-10T21:33:25.683Z,91.10
2022-10-10T21:38:29.745Z,91.00
2022-10-10T21:43:35.220Z,90.80
2022-10-10T21:48:39.016Z,90.80
2022-10-10T21:53:42.911Z,90.80
2022-10-10T21:58:47.995Z,90.80
2022-10-10T22:03:53.262Z,90.70
2022-10-10T22:08:59.810Z,90.70
2022-10-10T22:14:05.681Z,90.70
2022-10-10T22:19:09.441Z,90.60
2022-10-10T22:24:13.275Z,90.40
2022-10-10T22:29:18.225Z,90.30
